sensor_id;sensor_type;location;lat;lon;timestamp;pressure;altitude;pressure_sealevel;temperature;humidity
59240;BME280;45010;53.640;10.578;2023-05-18T00:00:58;102141.34;;;26.73;31.13
59240;BME280;45010;53.640;10.578;2023-05-18T00:03:59;102150.81;;;26.76;30.69
59240;BME280;45010;53.640;10.578;2023-05-18T00:07:02;102140.56;;;26.72;31.07
59240;BME280;45010;53.640;10.578;2023-05-18T00:10:03;102146.31;;;26.76;31.10
59240;BME280;45010;53.640;10.578;2023-05-18T00:13:03;102145.47;;;26.76;30.64
59240;BME280;45010;53.640;10.578;2023-05-18T00:16:04;102147.09;;;26.77;31.00
59240;BME280;45010;53.640;10.578;2023-05-18T00:19:04;102147.09;;;26.77;31.02
59240;BME280;45010;53.640;10.578;2023-05-18T00:22:05;102147.09;;;26.77;31.12
59240;BME280;45010;53.640;10.578;2023-05-18T00:25:07;102148.78;;;26.78;30.95
59240;BME280;45010;53.640;10.578;2023-05-18T00:28:07;102144.22;;;26.78;31.00
59240;BME280;45010;53.640;10.578;2023-05-18T00:31:08;102145.06;;;26.79;31.17
59240;BME280;45010;53.640;10.578;2023-05-18T00:34:08;102139.69;;;26.79;30.70
59240;BME280;45010;53.640;10.578;2023-05-18T00:37:09;102142.19;;;26.80;30.82
59240;BME280;45010;53.640;10.578;2023-05-18T00:40:10;102147.53;;;26.80;30.75
59240;BME280;45010;53.640;10.578;2023-05-18T00:43:10;102146.31;;;26.76;30.80
59240;BME280;45010;53.640;10.578;2023-05-18T00:46:11;102148.34;;;26.81;30.54
59240;BME280;45010;53.640;10.578;2023-05-18T00:49:11;102151.00;;;26.81;30.87
59240;BME280;45010;53.640;10.578;2023-05-18T00:52:12;102151.00;;;26.81;30.68
59240;BME280;45010;53.640;10.578;2023-05-18T00:55:12;102155.75;;;26.79;30.41
59240;BME280;45010;53.640;10.578;2023-05-18T00:58:13;102150.41;;;26.79;30.41
59240;BME280;45010;53.640;10.578;2023-05-18T01:01:13;102146.94;;;26.71;30.74
59240;BME280;45010;53.640;10.578;2023-05-18T01:04:16;102154.53;;;26.75;30.71
59240;BME280;45010;53.640;10.578;2023-05-18T01:07:17;102129.25;;;26.57;30.66
59240;BME280;45010;53.640;10.578;2023-05-18T01:10:18;102144.28;;;26.65;30.72
59240;BME280;45010;53.640;10.578;2023-05-18T01:13:25;102154.56;;;26.61;30.59
59240;BME280;45010;53.640;10.578;2023-05-18T01:16:34;102144.09;;;26.53;30.56
59240;BME280;45010;53.640;10.578;2023-05-18T01:19:59;102163.66;;;26.60;30.52
59240;BME280;45010;53.640;10.578;2023-05-18T01:26:35;102167.75;;;26.56;30.58
59240;BME280;45010;53.640;10.578;2023-05-18T01:29:40;102168.16;;;26.53;30.59
59240;BME280;45010;53.640;10.578;2023-05-18T01:32:41;102151.75;;;26.42;30.66
59240;BME280;45010;53.640;10.578;2023-05-18T01:35:42;102146.00;;;26.32;30.66
59240;BME280;45010;53.640;10.578;2023-05-18T01:38:47;102164.47;;;26.40;30.45
59240;BME280;45010;53.640;10.578;2023-05-18T01:41:55;102169.44;;;26.43;30.89
59240;BME280;45010;53.640;10.578;2023-05-18T01:45:02;102179.28;;;26.43;30.43
59240;BME280;45010;53.640;10.578;2023-05-18T01:48:07;102172.75;;;26.39;30.30
59240;BME280;45010;53.640;10.578;2023-05-18T01:51:12;102175.63;;;26.37;30.38
59240;BME280;45010;53.640;10.578;2023-05-18T01:54:16;102169.47;;;26.30;30.59
59240;BME280;45010;53.640;10.578;2023-05-18T01:57:20;102173.38;;;26.27;30.75
59240;BME280;45010;53.640;10.578;2023-05-18T02:00:22;102148.44;;;26.13;30.71
59240;BME280;45010;53.640;10.578;2023-05-18T02:03:23;102182.19;;;26.28;30.61
59240;BME280;45010;53.640;10.578;2023-05-18T02:06:23;102185.91;;;26.27;30.69
59240;BME280;45010;53.640;10.578;2023-05-18T02:09:24;102181.78;;;26.24;30.81
59240;BME280;45010;53.640;10.578;2023-05-18T02:12:24;102177.63;;;26.22;30.59
59240;BME280;45010;53.640;10.578;2023-05-18T02:15:25;102181.34;;;26.21;30.77
59240;BME280;45010;53.640;10.578;2023-05-18T02:18:25;102181.78;;;26.17;30.68
59240;BME280;45010;53.640;10.578;2023-05-18T02:21:25;102182.78;;;26.16;30.56
59240;BME280;45010;53.640;10.578;2023-05-18T02:24:26;102185.88;;;26.13;30.74
59240;BME280;45010;53.640;10.578;2023-05-18T02:27:26;102184.25;;;26.12;30.87
59240;BME280;45010;53.640;10.578;2023-05-18T02:30:27;102188.94;;;26.10;30.64
59240;BME280;45010;53.640;10.578;2023-05-18T02:33:30;102188.34;;;26.08;30.63
59240;BME280;45010;53.640;10.578;2023-05-18T02:36:36;102174.97;;;25.95;30.81
59240;BME280;45010;53.640;10.578;2023-05-18T02:39:39;102185.25;;;26.04;30.79
59240;BME280;45010;53.640;10.578;2023-05-18T02:42:39;102190.81;;;26.03;30.75
59240;BME280;45010;53.640;10.578;2023-05-18T02:45:39;102191.00;;;26.01;31.01
59240;BME280;45010;53.640;10.578;2023-05-18T02:48:40;102195.75;;;25.99;31.07
59240;BME280;45010;53.640;10.578;2023-05-18T02:51:44;102190.59;;;25.98;31.03
59240;BME280;45010;53.640;10.578;2023-05-18T02:54:45;102193.69;;;25.95;30.85
59240;BME280;45010;53.640;10.578;2023-05-18T02:57:45;102202.75;;;25.94;31.04
59240;BME280;45010;53.640;10.578;2023-05-18T03:00:47;102196.56;;;25.93;31.02
59240;BME280;45010;53.640;10.578;2023-05-18T03:03:47;102184.22;;;25.85;30.93
59240;BME280;45010;53.640;10.578;2023-05-18T03:06:48;102200.66;;;25.89;30.87
59240;BME280;45010;53.640;10.578;2023-05-18T03:09:52;102201.88;;;25.86;30.82
59240;BME280;45010;53.640;10.578;2023-05-18T03:12:52;102201.09;;;25.86;30.99
59240;BME280;45010;53.640;10.578;2023-05-18T03:15:52;102203.94;;;25.84;30.79
59240;BME280;45010;53.640;10.578;2023-05-18T03:18:55;102192.44;;;25.77;30.98
59240;BME280;45010;53.640;10.578;2023-05-18T03:22:01;102200.66;;;25.82;31.00
59240;BME280;45010;53.640;10.578;2023-05-18T03:25:06;102193.66;;;25.74;30.86
59240;BME280;45010;53.640;10.578;2023-05-18T03:28:06;102201.06;;;25.79;30.78
59240;BME280;45010;53.640;10.578;2023-05-18T03:31:07;102208.47;;;25.77;31.10
59240;BME280;45010;53.640;10.578;2023-05-18T03:34:07;102194.50;;;25.75;31.19
59240;BME280;45010;53.640;10.578;2023-05-18T03:37:07;102199.84;;;25.75;31.00
59240;BME280;45010;53.640;10.578;2023-05-18T03:40:11;102196.53;;;25.73;31.21
59240;BME280;45010;53.640;10.578;2023-05-18T03:43:12;102195.91;;;25.71;30.93
59240;BME280;45010;53.640;10.578;2023-05-18T03:46:12;102202.28;;;25.70;30.87
59240;BME280;45010;53.640;10.578;2023-05-18T03:49:12;102184.19;;;25.58;31.03
59240;BME280;45010;53.640;10.578;2023-05-18T03:52:13;102204.31;;;25.68;31.19
59240;BME280;45010;53.640;10.578;2023-05-18T03:55:14;102205.34;;;25.67;31.13
59240;BME280;45010;53.640;10.578;2023-05-18T03:58:16;102207.41;;;25.64;31.01
59240;BME280;45010;53.640;10.578;2023-05-18T04:01:19;102208.44;;;25.63;31.22
59240;BME280;45010;53.640;10.578;2023-05-18T04:04:22;102207.63;;;25.63;30.98
59240;BME280;45010;53.640;10.578;2023-05-18T04:07:26;102211.31;;;25.62;31.30
59240;BME280;45010;53.640;10.578;2023-05-18T04:10:26;102208.03;;;25.60;31.12
59240;BME280;45010;53.640;10.578;2023-05-18T04:13:26;102210.91;;;25.58;31.27
59240;BME280;45010;53.640;10.578;2023-05-18T04:16:27;102212.94;;;25.56;31.29
59240;BME280;45010;53.640;10.578;2023-05-18T04:19:27;102211.94;;;25.57;31.43
59240;BME280;45010;53.640;10.578;2023-05-18T04:22:28;102223.59;;;25.56;31.19
59240;BME280;45010;53.640;10.578;2023-05-18T04:25:30;102224.44;;;25.57;31.44
59240;BME280;45010;53.640;10.578;2023-05-18T04:28:30;102225.66;;;25.54;31.27
59240;BME280;45010;53.640;10.578;2023-05-18T04:31:31;102230.22;;;25.54;31.25
59240;BME280;45010;53.640;10.578;2023-05-18T04:34:33;102228.50;;;25.52;31.24
59240;BME280;45010;53.640;10.578;2023-05-18T04:37:36;102202.56;;;25.33;31.20
59240;BME280;45010;53.640;10.578;2023-05-18T04:40:39;102242.09;;;25.51;31.08
59240;BME280;45010;53.640;10.578;2023-05-18T04:43:41;102242.09;;;25.51;31.42
59240;BME280;45010;53.640;10.578;2023-05-18T04:46:42;102239.59;;;25.49;31.35
59240;BME280;45010;53.640;10.578;2023-05-18T04:49:42;102249.44;;;25.49;31.44
59240;BME280;45010;53.640;10.578;2023-05-18T04:52:44;102249.22;;;25.44;31.57
59240;BME280;45010;53.640;10.578;2023-05-18T04:55:48;102250.25;;;25.43;31.30
59240;BME280;45010;53.640;10.578;2023-05-18T04:58:49;102262.19;;;25.47;31.45
59240;BME280;45010;53.640;10.578;2023-05-18T05:01:49;102266.50;;;25.48;31.41
59240;BME280;45010;53.640;10.578;2023-05-18T05:04:49;102268.38;;;25.47;31.40
59240;BME280;45010;53.640;10.578;2023-05-18T05:07:50;102267.53;;;25.47;31.38
59240;BME280;45010;53.640;10.578;2023-05-18T05:10:51;102267.91;;;25.44;31.33
59240;BME280;45010;53.640;10.578;2023-05-18T05:13:51;102254.56;;;25.37;31.15
59240;BME280;45010;53.640;10.578;2023-05-18T05:16:51;102265.25;;;25.44;31.48
59240;BME280;45010;53.640;10.578;2023-05-18T05:19:52;102276.78;;;25.44;31.42
59240;BME280;45010;53.640;10.578;2023-05-18T05:22:52;102278.59;;;25.44;31.24
59240;BME280;45010;53.640;10.578;2023-05-18T05:25:52;102269.78;;;25.43;31.55
59240;BME280;45010;53.640;10.578;2023-05-18T05:28:52;102282.31;;;25.43;31.51
59240;BME280;45010;53.640;10.578;2023-05-18T05:31:53;102286.84;;;25.42;31.54
59240;BME280;45010;53.640;10.578;2023-05-18T05:34:53;102282.50;;;25.41;31.58
59240;BME280;45010;53.640;10.578;2023-05-18T05:37:53;102291.34;;;25.42;31.46
59240;BME280;45010;53.640;10.578;2023-05-18T05:40:54;102292.38;;;25.41;31.54
59240;BME280;45010;53.640;10.578;2023-05-18T05:43:54;102290.91;;;25.38;31.47
59240;BME280;45010;53.640;10.578;2023-05-18T05:46:56;102297.72;;;25.41;31.43
59240;BME280;45010;53.640;10.578;2023-05-18T05:49:56;102295.03;;;25.41;31.36
59240;BME280;45010;53.640;10.578;2023-05-18T05:52:56;102299.53;;;25.40;31.30
59240;BME280;45010;53.640;10.578;2023-05-18T05:55:56;102297.09;;;25.38;31.13
59240;BME280;45010;53.640;10.578;2023-05-18T05:58:57;102309.44;;;25.39;31.16
59240;BME280;45010;53.640;10.578;2023-05-18T06:01:57;102313.13;;;25.38;31.33
59240;BME280;45010;53.640;10.578;2023-05-18T06:04:57;102318.47;;;25.38;31.37
59240;BME280;45010;53.640;10.578;2023-05-18T06:07:58;102322.13;;;25.37;31.27
59240;BME280;45010;53.640;10.578;2023-05-18T06:10:59;102320.50;;;25.36;31.17
59240;BME280;45010;53.640;10.578;2023-05-18T06:13:59;102316.19;;;25.35;30.74
59240;BME280;45010;53.640;10.578;2023-05-18T06:16:59;102326.25;;;25.33;30.33
59240;BME280;45010;53.640;10.578;2023-05-18T06:19:59;102320.25;;;25.31;30.20
59240;BME280;45010;53.640;10.578;2023-05-18T06:23:00;102321.94;;;25.32;30.08
59240;BME280;45010;53.640;10.578;2023-05-18T06:26:00;102324.59;;;25.32;29.92
59240;BME280;45010;53.640;10.578;2023-05-18T06:29:01;102322.91;;;25.31;29.99
59240;BME280;45010;53.640;10.578;2023-05-18T06:32:02;102329.28;;;25.30;30.11
59240;BME280;45010;53.640;10.578;2023-05-18T06:35:02;102336.28;;;25.31;30.08
59240;BME280;45010;53.640;10.578;2023-05-18T06:38:03;102338.13;;;25.31;30.22
59240;BME280;45010;53.640;10.578;2023-05-18T06:41:03;102334.00;;;25.28;30.22
59240;BME280;45010;53.640;10.578;2023-05-18T06:44:04;102339.97;;;25.30;30.25
59240;BME280;45010;53.640;10.578;2023-05-18T06:47:05;102315.44;;;25.13;30.33
59240;BME280;45010;53.640;10.578;2023-05-18T06:50:06;102339.34;;;25.28;30.29
59240;BME280;45010;53.640;10.578;2023-05-18T06:53:06;102320.78;;;25.20;30.23
59240;BME280;45010;53.640;10.578;2023-05-18T06:56:06;102339.34;;;25.28;30.33
59240;BME280;45010;53.640;10.578;2023-05-18T06:59:07;102334.00;;;25.28;30.23
59240;BME280;45010;53.640;10.578;2023-05-18T07:02:07;102341.00;;;25.29;30.51
59240;BME280;45010;53.640;10.578;2023-05-18T07:05:08;102333.38;;;25.26;30.61
59240;BME280;45010;53.640;10.578;2023-05-18T07:08:08;102342.03;;;25.28;30.78
59240;BME280;45010;53.640;10.578;2023-05-18T07:11:08;102336.88;;;25.27;30.87
59240;BME280;45010;53.640;10.578;2023-05-18T07:14:09;102341.41;;;25.26;31.05
59240;BME280;45010;53.640;10.578;2023-05-18T07:17:09;102342.22;;;25.27;31.55
59240;BME280;45010;53.640;10.578;2023-05-18T07:20:10;102345.06;;;25.25;31.44
59240;BME280;45010;53.640;10.578;2023-05-18T07:23:12;102349.41;;;25.26;31.45
59240;BME280;45010;53.640;10.578;2023-05-18T07:26:12;102345.72;;;25.27;31.30
59240;BME280;45010;53.640;10.578;2023-05-18T07:29:13;102349.19;;;25.28;31.46
59240;BME280;45010;53.640;10.578;2023-05-18T07:32:13;102357.00;;;25.29;31.76
59240;BME280;45010;53.640;10.578;2023-05-18T07:35:13;102349.63;;;25.31;31.38
59240;BME280;45010;53.640;10.578;2023-05-18T07:38:15;102352.94;;;25.33;31.41
59240;BME280;45010;53.640;10.578;2023-05-18T07:41:16;102354.19;;;25.37;31.68
59240;BME280;45010;53.640;10.578;2023-05-18T07:44:16;102352.16;;;25.39;31.45
59240;BME280;45010;53.640;10.578;2023-05-18T07:47:16;102356.28;;;25.42;31.66
59240;BME280;45010;53.640;10.578;2023-05-18T07:50:17;102348.47;;;25.41;31.18
59240;BME280;45010;53.640;10.578;2023-05-18T07:53:17;102358.16;;;25.48;31.42
59240;BME280;45010;53.640;10.578;2023-05-18T07:56:17;102362.06;;;25.52;31.65
59240;BME280;45010;53.640;10.578;2023-05-18T07:59:18;102360.88;;;25.55;31.34
59240;BME280;45010;53.640;10.578;2023-05-18T08:02:19;102358.88;;;25.57;31.37
59240;BME280;45010;53.640;10.578;2023-05-18T08:05:19;102359.47;;;25.59;31.74
59240;BME280;45010;53.640;10.578;2023-05-18T08:08:21;102367.13;;;25.62;31.56
59240;BME280;45010;53.640;10.578;2023-05-18T08:11:22;102350.63;;;25.59;31.44
59240;BME280;45010;53.640;10.578;2023-05-18T08:14:22;102359.28;;;25.68;30.99
59240;BME280;45010;53.640;10.578;2023-05-18T08:17:23;102357.66;;;25.67;31.15
59240;BME280;45010;53.640;10.578;2023-05-18T08:20:23;102364.25;;;25.71;31.31
59240;BME280;45010;53.640;10.578;2023-05-18T08:23:24;102353.16;;;25.74;31.42
59240;BME280;45010;53.640;10.578;2023-05-18T08:26:25;102358.13;;;25.77;31.36
59240;BME280;45010;53.640;10.578;2023-05-18T08:29:26;102352.34;;;25.80;31.41
59240;BME280;45010;53.640;10.578;2023-05-18T08:32:26;102360.00;;;25.83;31.37
59240;BME280;45010;53.640;10.578;2023-05-18T08:35:27;102327.66;;;25.71;31.26
59240;BME280;45010;53.640;10.578;2023-05-18T08:38:27;102347.88;;;25.87;31.28
59240;BME280;45010;53.640;10.578;2023-05-18T08:41:29;102344.19;;;25.88;31.21
59240;BME280;45010;53.640;10.578;2023-05-18T08:44:37;102336.41;;;25.94;31.18
59240;BME280;45010;53.640;10.578;2023-05-18T08:47:39;102332.47;;;25.89;31.14
59240;BME280;45010;53.640;10.578;2023-05-18T08:50:41;102335.97;;;25.97;31.22
59240;BME280;45010;53.640;10.578;2023-05-18T08:53:42;102350.78;;;25.99;31.31
59240;BME280;45010;53.640;10.578;2023-05-18T08:56:43;102336.41;;;26.00;30.90
59240;BME280;45010;53.640;10.578;2023-05-18T08:59:45;102344.22;;;26.02;30.88
59240;BME280;45010;53.640;10.578;2023-05-18T09:02:46;102332.28;;;25.98;30.93
59240;BME280;45010;53.640;10.578;2023-05-18T09:05:47;102344.66;;;26.05;30.70
59240;BME280;45010;53.640;10.578;2023-05-18T09:08:55;102336.19;;;26.02;30.87
59240;BME280;45010;53.640;10.578;2023-05-18T09:11:58;102345.06;;;26.09;30.16
59240;BME280;45010;53.640;10.578;2023-05-18T09:14:58;102349.38;;;26.10;30.64
59240;BME280;45010;53.640;10.578;2023-05-18T09:17:59;102317.69;;;25.94;30.42
59240;BME280;45010;53.640;10.578;2023-05-18T09:21:00;102325.31;;;26.03;30.64
59240;BME280;45010;53.640;10.578;2023-05-18T09:24:00;102340.97;;;26.13;30.75
59240;BME280;45010;53.640;10.578;2023-05-18T09:27:01;102330.06;;;26.15;29.57
59240;BME280;45010;53.640;10.578;2023-05-18T09:30:02;102331.72;;;26.16;29.02
59240;BME280;45010;53.640;10.578;2023-05-18T09:33:03;102336.03;;;26.17;28.42
59240;BME280;45010;53.640;10.578;2023-05-18T09:36:05;102331.09;;;26.14;27.49
59240;BME280;45010;53.640;10.578;2023-05-18T09:39:09;102324.91;;;26.13;27.58
59240;BME280;45010;53.640;10.578;2023-05-18T09:42:10;102312.75;;;26.04;27.32
59240;BME280;45010;53.640;10.578;2023-05-18T09:45:18;102333.16;;;26.18;27.13
59240;BME280;45010;53.640;10.578;2023-05-18T09:48:19;102331.53;;;26.17;26.91
59240;BME280;45010;53.640;10.578;2023-05-18T09:51:20;102333.56;;;26.15;26.76
59240;BME280;45010;53.640;10.578;2023-05-18T09:54:24;102317.94;;;26.12;26.24
59240;BME280;45010;53.640;10.578;2023-05-18T09:57:24;102329.84;;;26.16;26.03
59240;BME280;45010;53.640;10.578;2023-05-18T10:00:25;102338.91;;;26.15;25.97
59240;BME280;45010;53.640;10.578;2023-05-18T10:03:30;102316.47;;;26.10;25.65
59240;BME280;45010;53.640;10.578;2023-05-18T10:06:31;102321.22;;;26.14;25.60
59240;BME280;45010;53.640;10.578;2023-05-18T10:09:32;102309.69;;;26.07;25.59
59240;BME280;45010;53.640;10.578;2023-05-18T10:12:32;102320.59;;;26.12;25.36
59240;BME280;45010;53.640;10.578;2023-05-18T10:15:34;102316.06;;;26.06;25.24
59240;BME280;45010;53.640;10.578;2023-05-18T10:18:36;102318.09;;;26.04;25.05
59240;BME280;45010;53.640;10.578;2023-05-18T10:21:37;102323.66;;;26.09;25.37
59240;BME280;45010;53.640;10.578;2023-05-18T10:24:38;102322.88;;;26.09;25.39
59240;BME280;45010;53.640;10.578;2023-05-18T10:27:43;102321.19;;;26.08;25.44
59240;BME280;45010;53.640;10.578;2023-05-18T10:30:44;102283.31;;;25.90;25.31
59240;BME280;45010;53.640;10.578;2023-05-18T10:33:44;102315.03;;;26.07;24.96
59240;BME280;45010;53.640;10.578;2023-05-18T10:36:45;102312.38;;;26.07;24.90
59240;BME280;45010;53.640;10.578;2023-05-18T10:39:46;102301.06;;;26.05;24.66
59240;BME280;45010;53.640;10.578;2023-05-18T10:42:47;102315.03;;;26.07;24.77
59240;BME280;45010;53.640;10.578;2023-05-18T10:45:53;102305.16;;;26.08;24.90
59240;BME280;45010;53.640;10.578;2023-05-18T10:48:54;102307.63;;;26.09;25.09
59240;BME280;45010;53.640;10.578;2023-05-18T10:51:56;102290.75;;;26.02;24.95
59240;BME280;45010;53.640;10.578;2023-05-18T10:54:57;102284.16;;;25.98;24.76
59240;BME280;45010;53.640;10.578;2023-05-18T10:58:06;102309.28;;;26.10;24.64
59240;BME280;45010;53.640;10.578;2023-05-18T11:01:08;102301.06;;;26.05;25.04
59240;BME280;45010;53.640;10.578;2023-05-18T11:04:10;102312.97;;;26.09;24.85
59240;BME280;45010;53.640;10.578;2023-05-18T11:07:11;102309.28;;;26.10;24.92
59240;BME280;45010;53.640;10.578;2023-05-18T11:10:12;102309.28;;;26.10;25.16
59240;BME280;45010;53.640;10.578;2023-05-18T11:13:13;102298.56;;;26.10;24.89
59240;BME280;45010;53.640;10.578;2023-05-18T11:16:14;102300.25;;;26.11;24.82
59240;BME280;45010;53.640;10.578;2023-05-18T11:19:15;102279.03;;;25.96;24.83
59240;BME280;45010;53.640;10.578;2023-05-18T11:22:16;102272.25;;;25.94;24.85
59240;BME280;45010;53.640;10.578;2023-05-18T11:28:23;102296.94;;;26.09;24.10
59240;BME280;45010;53.640;10.578;2023-05-18T11:31:42;102291.16;;;26.05;24.59
59240;BME280;45010;53.640;10.578;2023-05-18T11:34:45;102296.31;;;26.07;24.32
59240;BME280;45010;53.640;10.578;2023-05-18T11:37:47;102289.53;;;26.04;24.25
59240;BME280;45010;53.640;10.578;2023-05-18T11:40:49;102278.00;;;26.04;24.55
59240;BME280;45010;53.640;10.578;2023-05-18T11:44:01;102269.78;;;25.99;24.10
59240;BME280;45010;53.640;10.578;2023-05-18T11:47:03;102286.25;;;26.09;24.32
59240;BME280;45010;53.640;10.578;2023-05-18T11:50:09;102276.16;;;26.04;24.51
59240;BME280;45010;53.640;10.578;2023-05-18T11:53:14;102277.19;;;26.10;24.33
59240;BME280;45010;53.640;10.578;2023-05-18T11:56:15;102254.13;;;25.96;24.27
59240;BME280;45010;53.640;10.578;2023-05-18T11:59:16;102275.53;;;26.09;24.11
59240;BME280;45010;53.640;10.578;2023-05-18T12:02:19;102258.69;;;26.02;24.16
59240;BME280;45010;53.640;10.578;2023-05-18T12:05:20;102271.84;;;26.10;24.22
59240;BME280;45010;53.640;10.578;2023-05-18T12:08:20;102263.63;;;26.05;24.60
59240;BME280;45010;53.640;10.578;2023-05-18T12:11:28;102270.00;;;26.11;24.70
59240;BME280;45010;53.640;10.578;2023-05-18T12:14:29;102254.56;;;26.06;24.63
59240;BME280;45010;53.640;10.578;2023-05-18T12:17:59;102265.28;;;26.06;24.64
59240;BME280;45010;53.640;10.578;2023-05-18T12:21:03;102256.22;;;26.07;24.33
59240;BME280;45010;53.640;10.578;2023-05-18T12:24:03;102270.19;;;26.09;24.45
59240;BME280;45010;53.640;10.578;2023-05-18T12:27:05;102259.09;;;26.05;24.41
59240;BME280;45010;53.640;10.578;2023-05-18T12:30:16;102261.97;;;26.04;24.17
59240;BME280;45010;53.640;10.578;2023-05-18T12:33:16;102260.31;;;26.03;24.87
59240;BME280;45010;53.640;10.578;2023-05-18T12:36:17;102261.34;;;26.02;24.93
59240;BME280;45010;53.640;10.578;2023-05-18T12:39:17;102260.31;;;26.03;24.78
59240;BME280;45010;53.640;10.578;2023-05-18T12:42:17;102259.28;;;26.04;24.12
59240;BME280;45010;53.640;10.578;2023-05-18T12:45:20;102256.63;;;26.04;24.95
59240;BME280;45010;53.640;10.578;2023-05-18T12:48:21;102251.25;;;26.04;25.05
59240;BME280;45010;53.640;10.578;2023-05-18T12:51:34;102244.06;;;25.98;25.09
59240;BME280;45010;53.640;10.578;2023-05-18T12:54:34;102247.97;;;26.02;24.75
59240;BME280;45010;53.640;10.578;2023-05-18T12:57:36;102233.19;;;25.92;24.83
59240;BME280;45010;53.640;10.578;2023-05-18T13:00:42;102252.94;;;26.05;24.73
59240;BME280;45010;53.640;10.578;2023-05-18T13:03:43;102250.88;;;26.07;24.63
59240;BME280;45010;53.640;10.578;2023-05-18T13:06:43;102246.31;;;26.08;24.71
59240;BME280;45010;53.640;10.578;2023-05-18T13:09:44;102245.53;;;26.07;24.62
59240;BME280;45010;53.640;10.578;2023-05-18T13:12:47;102242.84;;;26.07;24.67
59240;BME280;45010;53.640;10.578;2023-05-18T13:15:49;102239.34;;;26.06;24.36
59240;BME280;45010;53.640;10.578;2023-05-18T13:18:57;102220.63;;;26.00;24.54
59240;BME280;45010;53.640;10.578;2023-05-18T13:21:58;102223.72;;;26.03;24.58
59240;BME280;45010;53.640;10.578;2023-05-18T13:24:58;102226.59;;;26.02;24.59
59240;BME280;45010;53.640;10.578;2023-05-18T13:28:00;102203.94;;;25.84;24.59
59240;BME280;45010;53.640;10.578;2023-05-18T13:31:00;102221.66;;;25.99;24.60
59240;BME280;45010;53.640;10.578;2023-05-18T13:34:01;102225.34;;;25.98;24.75
59240;BME280;45010;53.640;10.578;2023-05-18T13:37:01;102227.41;;;25.96;24.79
59240;BME280;45010;53.640;10.578;2023-05-18T13:40:01;102226.81;;;25.94;24.68
59240;BME280;45010;53.640;10.578;2023-05-18T13:43:02;102217.94;;;25.93;24.43
59240;BME280;45010;53.640;10.578;2023-05-18T13:46:02;102222.88;;;25.89;24.50
59240;BME280;45010;53.640;10.578;2023-05-18T13:49:03;102228.22;;;25.89;24.32
59240;BME280;45010;53.640;10.578;2023-05-18T13:52:03;102222.03;;;25.89;24.31
59240;BME280;45010;53.640;10.578;2023-05-18T13:55:05;102214.22;;;25.81;24.34
59240;BME280;45010;53.640;10.578;2023-05-18T13:58:06;102206.00;;;25.82;24.27
59240;BME280;45010;53.640;10.578;2023-05-18T14:01:06;102211.34;;;25.82;24.55
59240;BME280;45010;53.640;10.578;2023-05-18T14:04:08;102208.06;;;25.80;24.37
59240;BME280;45010;53.640;10.578;2023-05-18T14:07:09;102180.09;;;25.62;24.34
59240;BME280;45010;53.640;10.578;2023-05-18T14:10:11;102209.31;;;25.77;24.34
59240;BME280;45010;53.640;10.578;2023-05-18T14:13:11;102199.84;;;25.75;24.27
59240;BME280;45010;53.640;10.578;2023-05-18T14:16:12;102196.53;;;25.73;24.47
59240;BME280;45010;53.640;10.578;2023-05-18T14:19:12;102202.91;;;25.72;24.51
59240;BME280;45010;53.640;10.578;2023-05-18T14:22:13;102195.91;;;25.71;24.21
59240;BME280;45010;53.640;10.578;2023-05-18T14:25:15;102195.31;;;25.69;24.54
59240;BME280;45010;53.640;10.578;2023-05-18T14:28:16;102192.00;;;25.67;24.57
59240;BME280;45010;53.640;10.578;2023-05-18T14:31:16;102190.34;;;25.65;24.60
59240;BME280;45010;53.640;10.578;2023-05-18T14:34:16;102188.72;;;25.64;24.73
59240;BME280;45010;53.640;10.578;2023-05-18T14:37:17;102191.59;;;25.63;24.92
59240;BME280;45010;53.640;10.578;2023-05-18T14:40:18;102189.09;;;25.61;24.73
59240;BME280;45010;53.640;10.578;2023-05-18T14:43:18;102186.66;;;25.60;24.96
59240;BME280;45010;53.640;10.578;2023-05-18T14:46:18;102190.34;;;25.59;25.04
59240;BME280;45010;53.640;10.578;2023-05-18T14:49:19;102193.22;;;25.57;25.00
59240;BME280;45010;53.640;10.578;2023-05-18T14:52:19;102186.22;;;25.56;24.93
59240;BME280;45010;53.640;10.578;2023-05-18T14:55:20;102160.09;;;25.45;24.92
59240;BME280;45010;53.640;10.578;2023-05-18T14:58:20;102178.63;;;25.53;25.20
59240;BME280;45010;53.640;10.578;2023-05-18T15:01:20;102181.28;;;25.53;25.20
59240;BME280;45010;53.640;10.578;2023-05-18T15:04:21;102184.97;;;25.52;25.14
59240;BME280;45010;53.640;10.578;2023-05-18T15:07:22;102174.66;;;25.49;25.11
59240;BME280;45010;53.640;10.578;2023-05-18T15:10:22;102175.69;;;25.48;25.15
59240;BME280;45010;53.640;10.578;2023-05-18T15:13:22;102172.22;;;25.47;24.85
59240;BME280;45010;53.640;10.578;2023-05-18T15:16:23;102177.75;;;25.46;24.77
59240;BME280;45010;53.640;10.578;2023-05-18T15:19:23;102170.78;;;25.45;24.97
59240;BME280;45010;53.640;10.578;2023-05-18T15:22:23;102161.47;;;25.34;24.77
59240;BME280;45010;53.640;10.578;2023-05-18T15:25:24;102177.34;;;25.42;24.98
59240;BME280;45010;53.640;10.578;2023-05-18T15:28:24;102168.50;;;25.42;25.04
59240;BME280;45010;53.640;10.578;2023-05-18T15:31:25;102176.69;;;25.40;25.21
59240;BME280;45010;53.640;10.578;2023-05-18T15:34:25;102167.03;;;25.39;25.24
59240;BME280;45010;53.640;10.578;2023-05-18T15:37:25;102169.91;;;25.37;25.40
59240;BME280;45010;53.640;10.578;2023-05-18T15:40:26;102172.56;;;25.37;25.45
59240;BME280;45010;53.640;10.578;2023-05-18T15:43:26;102171.97;;;25.35;25.50